Time;durP1;ratioP1;P1;durP2;ratioP2;P2;SDS_P1;SDS_P2;PMS_P1;PMS_P2;Temp;Humidity;BMP_temperature;BMP_pressure;BME280_temperature;BME280_humidity;BME280_pressure;Samples;Min_cycle;Max_cycle;Signal;HPM_P1;HPM_P2
2021/12/25 00:01:37;;;;;;;3.28;2.00;;;22.70;43.30;;;;;;6165587;28;80584;-69
2021/12/25 00:04:37;;;;;;;2.97;2.00;;;22.70;43.10;;;;;;6176964;28;81901;-69
2021/12/25 00:07:38;;;;;;;2.67;1.90;;;22.60;43.20;;;;;;6179722;27;80215;-69
2021/12/25 00:10:38;;;;;;;3.42;2.28;;;22.70;43.70;;;;;;6159844;28;80416;-74
2021/12/25 00:13:39;;;;;;;3.45;1.90;;;22.60;43.40;;;;;;6166475;28;80194;-70
2021/12/25 00:16:39;;;;;;;3.10;2.05;;;22.70;43.40;;;;;;6148963;27;80414;-70
2021/12/25 00:19:40;;;;;;;2.65;1.77;;;22.70;43.70;;;;;;6177816;28;87187;-71
2021/12/25 00:22:40;;;;;;;3.35;2.03;;;22.70;43.90;;;;;;6191336;28;80485;-65
2021/12/25 00:25:49;;;;;;;3.72;2.03;;;22.70;44.40;;;;;;6165466;28;81418;-70
2021/12/25 00:28:58;;;;;;;3.22;2.15;;;22.70;44.20;;;;;;6161667;27;82236;-68
2021/12/25 00:35:08;;;;;;;3.88;1.92;;;22.60;44.00;;;;;;6145593;28;80458;-68
2021/12/25 00:38:09;;;;;;;3.38;2.15;;;22.70;44.20;;;;;;6209587;28;82966;-70
2021/12/25 00:41:10;;;;;;;4.55;2.00;;;22.60;44.40;;;;;;6169316;28;80722;-68
2021/12/25 00:44:10;;;;;;;2.22;2.03;;;22.60;44.20;;;;;;6161608;28;80922;-68
2021/12/25 00:47:11;;;;;;;2.75;1.83;;;22.60;44.60;;;;;;6160387;28;80943;-68
2021/12/25 00:50:11;;;;;;;5.28;1.85;;;22.60;44.20;;;;;;6170460;28;82013;-69
2021/12/25 00:53:12;;;;;;;3.00;1.95;;;22.60;44.00;;;;;;6163136;28;81502;-70
2021/12/25 00:56:12;;;;;;;3.20;1.63;;;22.60;44.00;;;;;;6161060;28;80280;-72
2021/12/25 00:59:13;;;;;;;3.28;2.00;;;22.60;44.00;;;;;;6161970;28;80101;-67
2021/12/25 01:02:13;;;;;;;2.17;1.58;;;22.60;43.90;;;;;;6159874;27;80857;-69
2021/12/25 01:05:14;;;;;;;2.75;2.00;;;22.60;43.80;;;;;;6158103;28;83205;-69
2021/12/25 01:08:15;;;;;;;2.85;1.83;;;22.60;43.80;;;;;;6192258;28;80659;-68
2021/12/25 01:11:16;;;;;;;3.05;2.08;;;22.60;43.80;;;;;;6160124;28;83426;-68
2021/12/25 01:17:57;;;;;;;1.98;1.50;;;22.60;43.80;;;;;;6177708;28;82984;-69
2021/12/25 01:24:31;;;;;;;4.00;2.00;;;22.60;44.00;;;;;;6173162;28;80341;-68
2021/12/25 01:48:50;;;;;;;3.25;1.90;;;22.60;44.80;;;;;;6172415;28;81612;-69
2021/12/25 01:51:51;;;;;;;2.38;1.88;;;22.60;44.60;;;;;;6161627;28;83212;-69
2021/12/25 01:54:51;;;;;;;3.05;2.03;;;22.60;44.80;;;;;;6160007;28;80789;-70
2021/12/25 01:57:52;;;;;;;2.60;2.15;;;22.50;44.40;;;;;;6213072;28;82053;-70
2021/12/25 02:00:52;;;;;;;3.33;2.33;;;22.50;44.50;;;;;;6167038;28;82947;-70
2021/12/25 02:03:53;;;;;;;3.60;2.47;;;22.50;44.40;;;;;;6171981;27;80599;-69
2021/12/25 02:06:53;;;;;;;3.53;2.33;;;22.50;44.70;;;;;;6151209;28;82791;-70
2021/12/25 02:09:54;;;;;;;3.53;2.03;;;22.50;44.60;;;;;;6179104;28;80926;-69
2021/12/25 02:12:55;;;;;;;3.75;2.13;;;22.50;44.80;;;;;;6158813;28;84002;-70
2021/12/25 02:15:57;;;;;;;4.25;2.40;;;22.50;44.80;;;;;;6172764;27;80872;-70
2021/12/25 02:19:04;;;;;;;3.83;2.42;;;22.50;44.50;;;;;;6177372;28;82354;-69
2021/12/25 02:22:27;;;;;;;12.02;2.72;;;22.50;44.40;;;;;;6158046;28;87441;-68
2021/12/25 02:25:28;;;;;;;3.58;2.33;;;22.50;43.80;;;;;;6167015;27;83148;-68
2021/12/25 02:28:28;;;;;;;4.28;2.72;;;22.50;43.50;;;;;;6195068;28;82306;-68
2021/12/25 02:31:29;;;;;;;4.18;2.30;;;22.50;44.00;;;;;;6160800;28;82913;-69
2021/12/25 02:34:30;;;;;;;4.45;2.78;;;22.50;43.40;;;;;;6166845;28;80505;-69
2021/12/25 02:37:31;;;;;;;3.03;2.33;;;22.50;43.30;;;;;;6197498;28;80233;-69
2021/12/25 02:40:32;;;;;;;4.78;2.30;;;22.50;43.10;;;;;;6162827;28;82861;-69
2021/12/25 02:43:32;;;;;;;4.80;2.90;;;22.50;43.40;;;;;;6160626;28;83416;-69
2021/12/25 02:46:33;;;;;;;3.15;2.20;;;22.50;42.90;;;;;;6158235;28;82126;-69
2021/12/25 02:49:34;;;;;;;3.88;2.65;;;22.40;43.10;;;;;;6160272;28;83418;-69
2021/12/25 02:52:35;;;;;;;3.20;2.05;;;22.50;43.20;;;;;;6158374;28;83356;-69
2021/12/25 02:55:35;;;;;;;4.18;2.17;;;22.50;43.10;;;;;;6173391;27;83916;-69
2021/12/25 02:58:36;;;;;;;3.75;2.45;;;22.50;43.90;;;;;;6169347;27;81057;-69
2021/12/25 03:01:37;;;;;;;4.43;3.17;;;22.50;44.50;;;;;;6169113;28;80598;-69
2021/12/25 03:04:37;;;;;;;3.72;2.22;;;22.50;43.80;;;;;;6161918;28;83192;-69
2021/12/25 03:07:38;;;;;;;3.03;2.08;;;22.40;43.60;;;;;;6170993;27;80355;-69
2021/12/25 03:10:39;;;;;;;3.75;2.08;;;22.40;44.10;;;;;;6208493;28;81991;-69
2021/12/25 03:13:57;;;;;;;4.00;2.40;;;22.40;43.90;;;;;;6208028;28;83447;-70
2021/12/25 03:16:59;;;;;;;3.40;2.42;;;22.40;42.80;;;;;;6198596;28;83408;-70
2021/12/25 03:20:00;;;;;;;4.50;2.40;;;22.40;42.80;;;;;;6171433;27;80542;-70
2021/12/25 03:23:00;;;;;;;4.95;2.47;;;22.50;42.80;;;;;;6165361;28;81782;-69
2021/12/25 03:26:01;;;;;;;3.42;2.13;;;22.50;42.80;;;;;;6167486;27;83312;-68
2021/12/25 03:29:04;;;;;;;3.80;2.47;;;22.50;42.70;;;;;;6170045;27;83643;-68
2021/12/25 03:32:04;;;;;;;3.80;2.42;;;22.60;42.20;;;;;;6197915;28;83340;-67
2021/12/25 03:35:06;;;;;;;3.63;2.08;;;22.60;42.20;;;;;;6159670;28;81137;-68
2021/12/25 03:38:07;;;;;;;5.10;2.50;;;22.70;42.00;;;;;;6161914;28;80381;-67
2021/12/25 03:41:08;;;;;;;3.42;2.15;;;22.70;41.90;;;;;;6197637;28;83679;-68
2021/12/25 03:44:08;;;;;;;3.20;2.25;;;22.70;41.60;;;;;;6161031;28;83407;-68
2021/12/25 03:47:23;;;;;;;3.53;2.22;;;22.80;41.80;;;;;;6169268;28;83457;-68
2021/12/25 03:57:36;;;;;;;3.85;2.33;;;22.80;41.20;;;;;;6162573;28;81387;-69
2021/12/25 04:00:19;;;;;;;4.97;2.38;;;22.90;40.90;;;;;;6158496;28;83408;-69
2021/12/25 04:03:37;;;;;;;3.67;2.42;;;22.90;40.80;;;;;;6159854;28;80484;-70
2021/12/25 04:06:52;;;;;;;2.50;2.00;;;22.90;40.60;;;;;;6188578;28;81858;-69
2021/12/25 04:09:58;;;;;;;3.75;2.22;;;22.90;40.30;;;;;;6178701;27;80328;-68
2021/12/25 04:12:59;;;;;;;4.00;2.35;;;22.90;40.20;;;;;;6198694;27;83733;-70
2021/12/25 04:15:59;;;;;;;3.10;1.88;;;22.90;40.10;;;;;;6170160;28;80444;-71
2021/12/25 04:19:01;;;;;;;3.42;2.15;;;22.90;40.00;;;;;;6174058;28;83540;-71
2021/12/25 04:22:06;;;;;;;2.45;1.65;;;23.00;39.80;;;;;;6174965;28;83141;-72
2021/12/25 04:25:07;;;;;;;2.40;1.85;;;23.00;39.70;;;;;;6142208;28;83262;-72
2021/12/25 04:28:30;;;;;;;1.98;1.50;;;23.00;39.50;;;;;;6158866;28;80259;-72
2021/12/25 04:31:45;;;;;;;2.75;1.85;;;23.00;39.30;;;;;;6159454;28;87927;-71
2021/12/25 05:05:02;;;;;;;2.33;1.45;;;23.00;37.70;;;;;;6164439;28;84663;-69
2021/12/25 05:08:08;;;;;;;3.45;1.67;;;23.00;37.50;;;;;;6200859;28;83744;-68
2021/12/25 05:11:08;;;;;;;1.88;1.63;;;23.00;37.60;;;;;;6161970;28;81710;-68
2021/12/25 05:14:09;;;;;;;2.97;1.58;;;23.10;37.90;;;;;;6156710;28;82766;-73
2021/12/25 05:17:13;;;;;;;2.90;1.65;;;23.10;38.30;;;;;;6187987;28;81819;-71
2021/12/25 05:20:14;;;;;;;4.93;1.80;;;23.10;39.20;;;;;;6156856;28;81837;-73
2021/12/25 05:23:14;;;;;;;1.30;1.15;;;23.10;40.00;;;;;;6152993;28;83152;-70
2021/12/25 05:26:15;;;;;;;2.30;1.30;;;23.20;39.90;;;;;;6165676;28;83618;-69
2021/12/25 05:29:23;;;;;;;2.28;1.30;;;23.10;40.30;;;;;;6159163;28;83146;-70
2021/12/25 05:32:24;;;;;;;4.72;1.77;;;22.80;42.70;;;;;;6156592;28;82126;-68
2021/12/25 05:35:43;;;;;;;3.35;1.20;;;22.70;43.70;;;;;;6156282;28;83196;-69
2021/12/25 05:38:57;;;;;;;315.75;120.45;;;22.60;44.10;;;;;;6156667;28;83155;-69
2021/12/25 05:42:06;;;;;;;570.97;244.45;;;22.50;44.90;;;;;;6150434;28;85690;-68
2021/12/25 05:45:07;;;;;;;509.23;206.45;;;22.50;45.60;;;;;;6149245;28;88068;-68
2021/12/25 05:48:18;;;;;;;450.23;170.18;;;22.60;45.80;;;;;;6151046;28;88269;-68
2021/12/25 05:51:39;;;;;;;415.13;164.27;;;22.50;45.80;;;;;;6147445;28;85749;-68
2021/12/25 05:55:03;;;;;;;646.90;291.58;;;22.50;45.90;;;;;;6154907;28;86452;-68
2021/12/25 05:58:14;;;;;;;860.83;402.27;;;22.50;46.40;;;;;;6120169;28;87585;-68
2021/12/25 06:01:28;;;;;;;710.78;329.67;;;22.40;46.80;;;;;;6144986;28;90205;-68
2021/12/25 06:04:28;;;;;;;664.28;301.80;;;22.50;47.10;;;;;;6152984;28;87697;-67
2021/12/25 06:07:29;;;;;;;616.88;272.67;;;22.40;47.10;;;;;;6152968;28;88003;-68
2021/12/25 06:10:30;;;;;;;559.10;245.60;;;22.40;47.00;;;;;;6149976;28;87328;-69
2021/12/25 06:13:30;;;;;;;528.72;229.38;;;22.40;47.10;;;;;;6149524;28;85775;-67
2021/12/25 06:16:31;;;;;;;478.70;200.93;;;22.30;47.30;;;;;;6176448;28;87107;-68
2021/12/25 06:19:44;;;;;;;453.05;184.45;;;22.20;47.30;;;;;;6149705;28;88306;-68
2021/12/25 06:23:16;;;;;;;393.35;154.88;;;22.10;47.30;;;;;;6153691;28;87293;-69
2021/12/25 06:26:46;;;;;;;377.13;146.82;;;22.10;47.60;;;;;;6118136;28;85555;-68
2021/12/25 06:30:05;;;;;;;320.25;129.63;;;22.00;47.80;;;;;;6153543;28;86091;-71
2021/12/25 06:33:41;;;;;;;292.67;120.90;;;22.00;47.60;;;;;;6142061;28;85632;-68
2021/12/25 06:37:11;;;;;;;266.65;108.25;;;22.00;48.50;;;;;;6128232;28;85675;-69
2021/12/25 06:40:31;;;;;;;258.58;99.95;;;22.00;48.90;;;;;;6137138;28;89918;-69
2021/12/25 06:43:32;;;;;;;227.80;91.45;;;22.00;49.10;;;;;;6181282;28;87864;-71
2021/12/25 06:46:33;;;;;;;215.50;85.90;;;22.00;49.50;;;;;;6155871;28;85305;-72
2021/12/25 06:49:33;;;;;;;208.45;81.22;;;22.00;49.40;;;;;;6154111;28;85012;-69
2021/12/25 06:52:49;;;;;;;193.43;76.32;;;22.00;49.60;;;;;;6152887;28;83233;-67
2021/12/25 06:56:01;;;;;;;177.23;72.50;;;22.00;49.10;;;;;;6153813;28;85415;-73
2021/12/25 06:59:12;;;;;;;147.10;60.22;;;22.00;49.20;;;;;;6157657;28;83539;-68
2021/12/25 07:02:16;;;;;;;149.20;59.33;;;22.00;49.30;;;;;;6155800;28;84123;-69
2021/12/25 07:05:35;;;;;;;132.32;51.22;;;21.90;48.80;;;;;;6156601;28;82940;-68
2021/12/25 07:08:59;;;;;;;119.43;50.28;;;21.90;48.90;;;;;;6143996;28;84929;-68
2021/12/25 07:12:19;;;;;;;116.07;46.53;;;21.80;49.30;;;;;;6157627;28;84634;-69
2021/12/25 07:15:40;;;;;;;107.70;42.25;;;21.90;49.40;;;;;;6154049;28;86293;-69
2021/12/25 07:18:59;;;;;;;90.25;38.88;;;21.90;49.30;;;;;;6147864;28;85833;-69
2021/12/25 07:22:18;;;;;;;92.53;37.42;;;21.90;49.00;;;;;;6156874;28;83274;-69
2021/12/25 07:25:29;;;;;;;84.90;35.33;;;21.90;49.50;;;;;;6152293;28;90150;-69
2021/12/25 07:28:56;;;;;;;78.00;30.90;;;21.80;49.30;;;;;;6131993;28;83032;-70
2021/12/25 07:31:57;;;;;;;66.28;31.25;;;21.80;49.40;;;;;;6156441;28;83988;-69
2021/12/25 07:34:57;;;;;;;72.07;28.80;;;21.80;49.40;;;;;;6154590;28;83300;-70
2021/12/25 07:37:58;;;;;;;69.18;29.23;;;21.80;49.30;;;;;;6157171;28;83495;-70
2021/12/25 07:40:59;;;;;;;58.33;26.48;;;21.70;49.10;;;;;;6155461;28;84059;-71
2021/12/25 07:44:02;;;;;;;63.72;23.73;;;21.70;49.50;;;;;;6157723;28;83066;-71
2021/12/25 07:47:14;;;;;;;52.95;22.00;;;21.70;49.70;;;;;;6153063;28;82882;-69
2021/12/25 07:50:15;;;;;;;49.08;20.40;;;21.70;50.00;;;;;;6158935;28;84766;-70
2021/12/25 07:53:18;;;;;;;43.35;20.05;;;21.70;49.80;;;;;;6155346;28;83973;-70
2021/12/25 07:56:19;;;;;;;37.25;16.75;;;21.70;49.70;;;;;;6155850;28;83423;-71
2021/12/25 07:59:20;;;;;;;41.33;18.30;;;21.70;49.40;;;;;;6155940;28;83329;-69
2021/12/25 08:02:20;;;;;;;35.40;16.17;;;21.70;49.60;;;;;;6158324;28;83101;-70
2021/12/25 08:05:21;;;;;;;38.85;15.80;;;21.60;49.50;;;;;;6153919;28;83037;-69
2021/12/25 08:08:21;;;;;;;32.88;14.80;;;21.60;49.20;;;;;;6145413;28;83372;-70
2021/12/25 08:11:22;;;;;;;30.60;14.63;;;21.60;49.00;;;;;;6148468;28;83382;-69
2021/12/25 08:14:25;;;;;;;32.72;14.90;;;21.60;48.90;;;;;;6153412;28;83387;-70
2021/12/25 08:17:26;;;;;;;33.92;14.15;;;21.60;48.50;;;;;;6154622;28;84098;-70
2021/12/25 08:20:45;;;;;;;30.83;12.15;;;21.60;48.60;;;;;;6149024;28;83171;-70
2021/12/25 08:24:04;;;;;;;28.30;11.60;;;21.60;49.00;;;;;;6152112;28;83129;-69
2021/12/25 08:27:30;;;;;;;29.02;11.52;;;21.60;48.50;;;;;;6137365;28;83596;-71
2021/12/25 08:30:49;;;;;;;22.83;11.27;;;21.60;48.60;;;;;;6153557;28;83264;-71
2021/12/25 08:34:08;;;;;;;21.25;10.32;;;21.60;48.20;;;;;;6157044;28;83150;-72
2021/12/25 08:37:29;;;;;;;23.65;10.82;;;21.60;48.00;;;;;;6150545;28;88640;-72
2021/12/25 08:40:29;;;;;;;26.33;10.18;;;21.70;48.10;;;;;;6145976;28;83503;-70
2021/12/25 08:43:34;;;;;;;21.50;9.38;;;21.70;48.10;;;;;;6151904;28;90197;-70
2021/12/25 08:46:54;;;;;;;17.67;8.05;;;21.70;47.70;;;;;;6157395;28;83307;-72
2021/12/25 08:49:54;;;;;;;19.80;8.27;;;21.60;48.10;;;;;;6159148;28;80543;-71
2021/12/25 08:52:55;;;;;;;19.25;7.85;;;21.60;48.40;;;;;;6152521;28;83382;-71
2021/12/25 08:55:56;;;;;;;15.77;6.82;;;21.70;48.00;;;;;;6153270;28;80544;-71
2021/12/25 08:59:00;;;;;;;19.63;8.32;;;21.60;47.40;;;;;;6155651;28;80990;-72
2021/12/25 09:02:02;;;;;;;13.38;6.75;;;21.60;47.40;;;;;;6155985;28;80559;-71
2021/12/25 09:05:03;;;;;;;17.45;6.00;;;21.50;47.50;;;;;;6157188;28;80762;-71
2021/12/25 09:08:03;;;;;;;15.60;6.50;;;21.50;47.60;;;;;;6150549;28;82316;-72
2021/12/25 09:11:04;;;;;;;15.40;6.20;;;21.50;47.60;;;;;;6157505;28;80349;-71
2021/12/25 09:14:04;;;;;;;19.42;6.30;;;21.60;47.60;;;;;;6159240;28;81471;-72
2021/12/25 09:17:05;;;;;;;13.00;5.78;;;21.60;47.60;;;;;;6157306;28;80453;-71
2021/12/25 09:20:05;;;;;;;57.53;26.48;;;21.70;47.70;;;;;;6158422;28;80481;-71
2021/12/25 09:23:06;;;;;;;130.05;60.28;;;21.80;48.40;;;;;;6154747;28;83270;-70
2021/12/25 09:26:06;;;;;;;169.20;78.40;;;21.90;47.90;;;;;;6156894;28;82876;-70
2021/12/25 09:29:07;;;;;;;277.48;129.48;;;22.00;48.00;;;;;;6156831;28;83571;-69
2021/12/25 09:32:07;;;;;;;271.52;128.00;;;22.10;48.40;;;;;;6157438;28;85950;-71
2021/12/25 09:35:08;;;;;;;226.00;107.97;;;22.20;48.20;;;;;;6155659;28;86044;-68
2021/12/25 09:38:08;;;;;;;248.35;116.30;;;22.20;48.00;;;;;;6152073;28;85768;-68
2021/12/25 09:41:09;;;;;;;301.52;140.50;;;22.20;48.50;;;;;;6155705;27;85951;-67
2021/12/25 09:44:09;;;;;;;343.10;162.77;;;22.20;48.20;;;;;;6155107;28;85450;-69
2021/12/25 09:47:10;;;;;;;420.65;198.65;;;22.30;48.20;;;;;;6155068;28;90395;-69
2021/12/25 09:50:10;;;;;;;463.38;216.88;;;22.40;48.10;;;;;;6155368;28;85569;-67
2021/12/25 09:53:12;;;;;;;348.83;167.38;;;22.40;47.70;;;;;;6156145;28;85899;-71
2021/12/25 09:56:12;;;;;;;319.48;150.60;;;22.30;48.10;;;;;;6153527;28;86333;-67
2021/12/25 09:59:13;;;;;;;269.73;125.07;;;22.30;48.20;;;;;;6151824;28;85911;-66
2021/12/25 10:02:14;;;;;;;233.13;112.38;;;22.40;48.30;;;;;;6150934;28;87705;-67
2021/12/25 10:05:14;;;;;;;220.23;103.53;;;22.30;48.70;;;;;;6153228;28;85838;-65
2021/12/25 10:08:15;;;;;;;203.07;96.07;;;22.40;48.60;;;;;;6152545;28;92868;-67
2021/12/25 10:11:15;;;;;;;185.15;87.30;;;22.40;48.60;;;;;;6157266;28;86068;-68
2021/12/25 10:14:16;;;;;;;158.85;77.90;;;22.40;48.50;;;;;;6156926;28;83559;-67
2021/12/25 10:17:16;;;;;;;154.00;73.82;;;22.40;49.00;;;;;;6157045;28;83112;-68
2021/12/25 10:20:17;;;;;;;137.30;67.93;;;22.40;48.60;;;;;;6157132;28;83704;-67
2021/12/25 10:23:25;;;;;;;134.75;64.85;;;22.30;48.70;;;;;;6152190;28;82980;-67
2021/12/25 10:26:25;;;;;;;118.43;59.50;;;22.30;48.90;;;;;;6154339;28;84451;-70
2021/12/25 10:29:26;;;;;;;119.97;56.15;;;22.30;48.80;;;;;;6152757;28;85967;-67
2021/12/25 10:32:26;;;;;;;110.25;52.50;;;22.30;48.70;;;;;;6153405;28;83963;-69
2021/12/25 10:35:29;;;;;;;105.55;47.58;;;22.30;49.00;;;;;;6154559;28;84176;-67
2021/12/25 10:38:30;;;;;;;97.38;45.10;;;22.30;48.80;;;;;;6156709;28;83542;-68
2021/12/25 10:41:30;;;;;;;83.10;42.25;;;22.30;48.60;;;;;;6151488;28;86101;-68
2021/12/25 10:44:31;;;;;;;84.63;40.25;;;22.20;48.60;;;;;;6156541;28;83588;-68
2021/12/25 10:47:32;;;;;;;88.72;39.83;;;22.20;48.90;;;;;;6154188;28;84138;-67
2021/12/25 10:50:32;;;;;;;76.32;38.30;;;22.20;49.70;;;;;;6152518;28;83234;-67
2021/12/25 10:53:34;;;;;;;72.15;35.85;;;22.20;50.60;;;;;;6156867;28;83627;-66
2021/12/25 10:56:35;;;;;;;71.38;32.47;;;22.30;50.60;;;;;;6156412;28;83299;-66
2021/12/25 10:59:35;;;;;;;63.40;30.98;;;22.30;51.10;;;;;;6152949;28;83964;-68
2021/12/25 11:02:36;;;;;;;55.92;30.50;;;22.20;51.30;;;;;;6148524;28;84811;-66
2021/12/25 11:05:36;;;;;;;58.85;27.92;;;22.20;52.50;;;;;;6158275;28;83306;-65
2021/12/25 11:08:37;;;;;;;51.67;25.70;;;22.30;53.70;;;;;;6158617;28;83256;-65
2021/12/25 11:11:37;;;;;;;47.40;24.02;;;22.20;53.80;;;;;;6157717;28;83019;-66
2021/12/25 11:14:38;;;;;;;41.08;22.40;;;22.30;53.50;;;;;;6157306;28;83513;-65
2021/12/25 11:17:38;;;;;;;42.80;20.95;;;22.30;52.80;;;;;;6156787;28;84053;-66
2021/12/25 11:20:39;;;;;;;39.33;18.80;;;22.20;52.60;;;;;;6155169;28;83558;-66
2021/12/25 11:23:40;;;;;;;37.78;18.90;;;22.20;51.90;;;;;;6160275;28;83894;-67
2021/12/25 11:26:40;;;;;;;35.08;16.02;;;22.10;51.20;;;;;;6154747;28;83906;-66
2021/12/25 11:29:41;;;;;;;30.08;16.05;;;22.10;51.40;;;;;;6156901;28;83009;-65
2021/12/25 11:32:42;;;;;;;31.85;15.82;;;22.10;51.10;;;;;;6158313;28;85931;-66
2021/12/25 11:35:42;;;;;;;25.60;13.30;;;22.10;51.70;;;;;;6157165;28;83057;-68
2021/12/25 11:38:43;;;;;;;24.42;11.95;;;22.10;51.40;;;;;;6155771;28;85322;-68
2021/12/25 11:41:43;;;;;;;23.13;11.95;;;22.10;51.20;;;;;;6155906;28;83020;-67
2021/12/25 11:44:50;;;;;;;20.60;11.15;;;22.00;50.60;;;;;;6156722;28;83261;-66
2021/12/25 11:47:51;;;;;;;22.30;10.60;;;22.00;50.20;;;;;;6156263;28;82977;-67
2021/12/25 11:50:52;;;;;;;20.10;10.27;;;22.00;50.00;;;;;;6154696;28;83152;-66
2021/12/25 11:54:09;;;;;;;20.13;9.98;;;22.00;49.90;;;;;;6155186;28;83958;-68
2021/12/25 12:00:16;;;;;;;13.52;7.68;;;21.90;48.30;;;;;;6156591;28;84273;-67
2021/12/25 12:03:16;;;;;;;12.57;7.25;;;21.90;47.60;;;;;;6153952;28;80478;-67
2021/12/25 12:06:17;;;;;;;15.98;7.93;;;21.80;47.40;;;;;;6156645;28;80807;-66
2021/12/25 12:09:18;;;;;;;13.07;7.28;;;21.80;47.30;;;;;;6156643;28;80839;-67
2021/12/25 12:12:21;;;;;;;13.15;7.10;;;21.80;47.40;;;;;;6155821;28;80218;-67
2021/12/25 12:15:40;;;;;;;13.02;6.28;;;21.70;47.50;;;;;;6158991;28;80807;-67
2021/12/25 12:18:59;;;;;;;10.75;6.22;;;21.80;47.40;;;;;;6158151;28;80378;-67
2021/12/25 12:22:00;;;;;;;15.73;6.50;;;21.80;47.90;;;;;;6157846;28;80783;-66
2021/12/25 12:28:04;;;;;;;11.15;5.55;;;21.80;48.10;;;;;;6156245;28;82275;-67
2021/12/25 12:31:04;;;;;;;11.00;5.43;;;21.80;48.40;;;;;;6155280;28;80602;-68
2021/12/25 12:34:05;;;;;;;9.63;5.72;;;21.80;48.60;;;;;;6158232;28;81167;-68
2021/12/25 12:37:05;;;;;;;10.27;5.40;;;21.80;48.70;;;;;;6150500;28;80388;-67
2021/12/25 12:40:07;;;;;;;10.75;5.15;;;21.90;48.50;;;;;;6158391;28;81007;-68
2021/12/25 12:43:09;;;;;;;10.18;4.95;;;22.00;48.30;;;;;;6183486;28;81869;-67
2021/12/25 12:46:09;;;;;;;9.27;5.53;;;22.10;48.10;;;;;;6157703;28;80600;-68
2021/12/25 12:49:10;;;;;;;12.50;4.97;;;22.20;48.00;;;;;;6158263;28;85393;-68
2021/12/25 12:52:12;;;;;;;10.88;4.35;;;22.30;47.60;;;;;;6157380;28;80347;-66
2021/12/25 12:55:12;;;;;;;9.52;4.85;;;22.30;47.20;;;;;;6159027;28;80283;-67
2021/12/25 12:58:13;;;;;;;7.07;3.90;;;22.40;46.30;;;;;;6158613;28;81751;-67
2021/12/25 13:01:13;;;;;;;9.52;4.70;;;22.60;44.50;;;;;;6157828;28;81798;-68
2021/12/25 13:04:14;;;;;;;7.82;4.45;;;22.70;42.50;;;;;;6155488;28;81581;-68
2021/12/25 13:07:14;;;;;;;8.63;3.90;;;22.80;41.20;;;;;;6157090;28;81507;-69
2021/12/25 13:10:20;;;;;;;8.82;4.22;;;22.90;40.20;;;;;;6158029;28;82509;-69
2021/12/25 13:13:21;;;;;;;;;;;22.90;39.20;;;;;;6159383;28;83208;-70
2021/12/25 13:16:23;;;;;;;8.13;4.65;;;23.00;38.70;;;;;;6165672;28;80306;-69
2021/12/25 13:19:25;;;;;;;8.20;4.75;;;23.10;38.40;;;;;;6159791;28;80305;-68
2021/12/25 13:22:26;;;;;;;6.13;3.90;;;23.00;39.60;;;;;;6158671;28;81639;-67
2021/12/25 13:25:26;;;;;;;9.13;4.72;;;22.90;40.30;;;;;;6158338;28;81451;-71
2021/12/25 13:28:27;;;;;;;8.30;4.35;;;22.80;40.20;;;;;;6157846;28;80712;-68
2021/12/25 13:31:27;;;;;;;8.10;4.07;;;22.70;40.90;;;;;;6157081;28;81027;-69
2021/12/25 13:34:28;;;;;;;8.50;4.80;;;22.70;41.80;;;;;;6159494;28;80524;-68
2021/12/25 13:37:28;;;;;;;6.30;3.70;;;22.60;41.90;;;;;;6157881;28;80690;-70
2021/12/25 13:40:29;;;;;;;8.15;4.25;;;22.50;42.20;;;;;;6157682;28;80320;-67
2021/12/25 13:43:29;;;;;;;11.82;4.13;;;22.50;42.30;;;;;;6157800;28;80566;-67
2021/12/25 13:46:30;;;;;;;8.00;3.83;;;22.40;42.80;;;;;;6157984;28;80622;-68
2021/12/25 13:49:30;;;;;;;11.88;4.22;;;22.40;42.60;;;;;;6157395;28;80859;-66
2021/12/25 13:52:34;;;;;;;7.95;3.95;;;22.40;42.90;;;;;;6149923;28;81596;-66
2021/12/25 13:55:34;;;;;;;10.52;4.53;;;22.30;43.30;;;;;;6180691;28;80579;-66
2021/12/25 13:58:35;;;;;;;9.00;3.85;;;22.30;42.90;;;;;;6155130;28;83300;-66
2021/12/25 14:01:35;;;;;;;7.10;3.50;;;22.20;43.20;;;;;;6155375;28;81320;-66
2021/12/25 14:04:36;;;;;;;6.25;3.55;;;22.10;43.50;;;;;;6157013;28;80403;-65
2021/12/25 14:07:36;;;;;;;11.32;4.32;;;22.00;43.60;;;;;;6157195;28;80367;-65
2021/12/25 14:10:37;;;;;;;10.50;4.38;;;22.00;43.80;;;;;;6157744;28;81415;-64
2021/12/25 14:13:40;;;;;;;6.93;4.20;;;21.90;44.00;;;;;;6157525;28;80312;-64
2021/12/25 14:16:40;;;;;;;9.52;4.57;;;22.00;44.90;;;;;;6162363;28;80853;-65
2021/12/25 14:19:41;;;;;;;8.07;4.13;;;21.90;44.90;;;;;;6161776;28;81446;-64
2021/12/25 14:22:41;;;;;;;7.03;3.92;;;21.90;44.50;;;;;;6162528;28;81524;-64
2021/12/25 14:25:42;;;;;;;7.15;4.03;;;21.80;44.50;;;;;;6161710;28;80912;-65
2021/12/25 14:28:42;;;;;;;6.50;4.15;;;21.80;44.80;;;;;;6158037;28;80688;-66
2021/12/25 14:31:43;;;;;;;7.60;3.85;;;21.80;45.30;;;;;;6162984;28;80110;-65
2021/12/25 14:34:43;;;;;;;7.82;4.40;;;21.80;45.50;;;;;;6163633;28;80139;-65
2021/12/25 14:37:44;;;;;;;8.07;4.57;;;21.80;45.80;;;;;;6161859;28;80521;-64
2021/12/25 14:40:49;;;;;;;7.97;4.72;;;21.80;45.70;;;;;;6160658;28;81193;-65
2021/12/25 14:43:49;;;;;;;9.88;5.10;;;21.70;45.90;;;;;;6160697;28;80824;-66
2021/12/25 14:46:51;;;;;;;10.32;5.00;;;21.70;46.20;;;;;;6155609;28;80741;-64
2021/12/25 14:49:52;;;;;;;7.47;4.45;;;21.70;46.10;;;;;;6156168;28;81498;-65
2021/12/25 14:52:53;;;;;;;11.82;4.82;;;21.70;45.60;;;;;;6157875;28;81443;-65
2021/12/25 14:55:53;;;;;;;11.07;4.95;;;21.80;46.50;;;;;;6154400;28;80710;-66
2021/12/25 14:58:54;;;;;;;9.55;4.88;;;21.70;45.50;;;;;;6152123;28;80518;-66
2021/12/25 15:01:54;;;;;;;10.13;5.32;;;21.70;45.20;;;;;;6155784;28;82191;-65
2021/12/25 15:04:55;;;;;;;11.10;5.93;;;21.70;45.20;;;;;;6153880;28;81476;-65
2021/12/25 15:07:55;;;;;;;10.38;5.07;;;21.60;45.30;;;;;;6157429;28;80974;-65
2021/12/25 15:10:56;;;;;;;13.05;5.53;;;21.50;45.10;;;;;;6158440;28;80376;-66
2021/12/25 15:13:56;;;;;;;11.68;4.72;;;21.50;45.30;;;;;;6159206;28;80614;-65
2021/12/25 15:16:57;;;;;;;9.38;5.28;;;21.50;45.40;;;;;;6157406;28;80376;-68
2021/12/25 15:19:57;;;;;;;8.52;4.53;;;21.50;45.20;;;;;;6156839;28;80681;-65
2021/12/25 15:22:58;;;;;;;8.85;4.82;;;21.50;45.00;;;;;;6157854;28;80466;-65
2021/12/25 15:25:58;;;;;;;9.38;5.18;;;21.50;44.90;;;;;;6153392;28;80437;-65
2021/12/25 15:28:59;;;;;;;9.82;4.88;;;21.50;44.80;;;;;;6156233;28;80596;-64
2021/12/25 15:31:59;;;;;;;9.63;4.45;;;21.40;44.60;;;;;;6157958;28;81198;-65
2021/12/25 15:35:01;;;;;;;15.35;4.63;;;21.40;44.90;;;;;;6156717;28;81898;-65
2021/12/25 15:38:01;;;;;;;9.25;4.63;;;21.50;44.40;;;;;;6160758;28;80497;-65
2021/12/25 15:41:02;;;;;;;9.98;4.97;;;21.70;44.60;;;;;;6153649;28;80769;-67
2021/12/25 15:44:02;;;;;;;11.25;5.00;;;21.80;44.80;;;;;;6157558;28;80672;-65
2021/12/25 15:47:03;;;;;;;11.10;5.07;;;21.90;44.30;;;;;;6158496;28;80500;-67
2021/12/25 15:50:03;;;;;;;7.97;5.07;;;22.00;44.30;;;;;;6156279;28;83316;-68
2021/12/25 15:53:04;;;;;;;9.57;5.00;;;22.10;43.90;;;;;;6155529;28;80564;-65
2021/12/25 15:56:05;;;;;;;7.68;4.32;;;22.20;43.80;;;;;;6155125;28;81635;-65
2021/12/25 15:59:05;;;;;;;7.90;4.75;;;22.30;43.60;;;;;;6155400;28;83270;-67
2021/12/25 16:02:06;;;;;;;8.25;4.97;;;22.30;43.30;;;;;;6187058;27;81477;-68
2021/12/25 16:05:06;;;;;;;10.38;4.60;;;22.30;43.10;;;;;;6155286;28;80552;-67
2021/12/25 16:08:06;;;;;;;8.02;4.40;;;22.30;43.50;;;;;;6154790;28;81352;-68
2021/12/25 16:11:08;;;;;;;7.57;4.78;;;22.40;43.60;;;;;;6155635;28;80796;-68
2021/12/25 16:14:08;;;;;;;9.15;5.22;;;22.40;43.40;;;;;;6155586;28;80843;-70
2021/12/25 16:17:09;;;;;;;19.90;6.00;;;22.40;43.60;;;;;;6159321;28;80436;-68
2021/12/25 16:20:09;;;;;;;7.90;4.30;;;22.40;43.90;;;;;;6154835;28;80502;-68
2021/12/25 16:23:10;;;;;;;9.65;4.63;;;22.50;43.90;;;;;;6151998;28;81008;-67
2021/12/25 16:26:10;;;;;;;11.90;5.03;;;22.50;44.00;;;;;;6154525;28;81498;-69
2021/12/25 16:29:11;;;;;;;9.20;5.00;;;22.50;43.70;;;;;;6153739;28;80689;-68
2021/12/25 16:32:11;;;;;;;9.27;4.80;;;22.50;44.30;;;;;;6154590;28;80959;-67
2021/12/25 16:35:12;;;;;;;9.20;4.95;;;22.60;44.50;;;;;;6156421;28;80515;-67
2021/12/25 16:38:13;;;;;;;8.35;4.50;;;22.60;44.20;;;;;;6158433;28;80926;-66
2021/12/25 16:41:13;;;;;;;10.02;4.82;;;22.60;43.80;;;;;;6156137;28;81000;-69
2021/12/25 16:44:14;;;;;;;61.05;26.42;;;22.60;43.90;;;;;;6155649;28;81075;-68
2021/12/25 16:47:14;;;;;;;131.27;68.18;;;22.60;44.00;;;;;;6151008;28;82866;-67
2021/12/25 16:50:14;;;;;;;216.52;102.55;;;22.70;44.00;;;;;;6147779;28;83081;-67
2021/12/25 16:53:15;;;;;;;287.13;136.88;;;22.60;43.90;;;;;;6149597;28;85719;-67
2021/12/25 16:56:16;;;;;;;296.13;140.63;;;22.70;42.50;;;;;;6149263;28;86371;-67